createdAt,value
2022-12-03T00:01:17.769Z,20.15
2022-12-03T00:04:20.538Z,13.73
2022-12-03T00:07:23.276Z,15.70
2022-12-03T00:10:26.050Z,13.77
2022-12-03T00:13:28.800Z,11.98
2022-12-03T00:16:32.812Z,16.25
2022-12-03T00:19:35.491Z,13.98
2022-12-03T00:22:38.081Z,14.13
2022-12-03T00:25:43.160Z,14.10
2022-12-03T00:28:48.344Z,15.98
2022-12-03T00:31:52.398Z,13.50
2022-12-03T00:34:55.939Z,16.65
2022-12-03T00:38:01.621Z,19.75
2022-12-03T00:41:04.375Z,17.17
2022-12-03T00:44:07.096Z,15.23
2022-12-03T00:47:11.245Z,16.88
2022-12-03T00:50:13.950Z,16.83
2022-12-03T00:53:16.916Z,12.75
2022-12-03T00:56:19.703Z,18.35
2022-12-03T00:59:22.490Z,15.55
2022-12-03T01:02:26.634Z,17.63
2022-12-03T01:05:29.412Z,18.10
2022-12-03T01:08:32.155Z,17.95
2022-12-03T01:11:41.088Z,22.55
2022-12-03T01:14:44.703Z,18.90
2022-12-03T01:17:48.901Z,22.10
2022-12-03T01:20:52.035Z,17.50
2022-12-03T01:23:54.917Z,20.67
2022-12-03T01:26:58.282Z,18.02
2022-12-03T01:30:00.901Z,19.15
2022-12-03T01:33:03.999Z,20.15
2022-12-03T01:36:06.947Z,21.52
2022-12-03T01:39:09.716Z,21.42
2022-12-03T01:42:14.239Z,20.60
2022-12-03T01:45:21.777Z,18.05
2022-12-03T01:48:25.796Z,18.15
2022-12-03T01:51:30.427Z,24.83
2022-12-03T01:54:37.547Z,15.98
2022-12-03T01:57:41.612Z,19.40
2022-12-03T02:00:44.528Z,17.83
2022-12-03T02:03:48.542Z,27.38
2022-12-03T02:06:51.147Z,20.83
2022-12-03T02:09:54.735Z,25.45
2022-12-03T02:12:58.993Z,21.88
2022-12-03T02:16:01.737Z,22.77
2022-12-03T02:19:08.313Z,19.85
2022-12-03T02:22:16.679Z,22.48
2022-12-03T02:25:21.829Z,20.90
2022-12-03T02:28:24.495Z,22.50
2022-12-03T02:31:27.204Z,21.40
2022-12-03T02:34:39.949Z,18.83
2022-12-03T02:37:43.104Z,21.98
2022-12-03T02:40:48.137Z,19.40
2022-12-03T02:43:50.457Z,25.00
2022-12-03T02:46:53.601Z,24.70
2022-12-03T02:49:56.843Z,21.00
2022-12-03T02:53:00.915Z,28.30
2022-12-03T02:56:05.645Z,31.52
2022-12-03T02:59:08.204Z,23.00
2022-12-03T03:02:11.496Z,24.15
2022-12-03T03:05:15.680Z,24.92
2022-12-03T03:08:18.952Z,25.83
2022-12-03T03:11:23.038Z,28.17
2022-12-03T03:14:25.671Z,20.38
2022-12-03T03:17:28.412Z,26.83
2022-12-03T03:20:31.759Z,28.42
2022-12-03T03:23:34.600Z,19.35
2022-12-03T03:26:38.480Z,21.52
2022-12-03T03:29:41.199Z,25.15
2022-12-03T03:32:45.855Z,24.90
2022-12-03T03:35:48.921Z,22.42
2022-12-03T03:38:51.711Z,28.92
2022-12-03T03:41:57.735Z,21.42
2022-12-03T03:45:00.639Z,27.05
2022-12-03T03:48:03.425Z,31.85
2022-12-03T03:51:09.335Z,21.50
2022-12-03T03:54:12.086Z,20.58
2022-12-03T03:57:16.052Z,25.50
2022-12-03T04:00:19.003Z,24.20
2022-12-03T04:03:21.645Z,25.73
2022-12-03T04:06:24.240Z,25.50
2022-12-03T04:09:26.811Z,23.40
2022-12-03T04:12:48.468Z,34.42
2022-12-03T04:15:51.046Z,22.15
2022-12-03T04:18:53.682Z,24.83
2022-12-03T04:22:13.829Z,22.30
2022-12-03T04:25:34.102Z,19.65
2022-12-03T04:28:52.798Z,33.28
2022-12-03T04:32:14.221Z,28.40
2022-12-03T04:35:34.361Z,30.40
2022-12-03T04:38:36.949Z,30.33
2022-12-03T04:41:39.455Z,23.35
2022-12-03T04:44:43.590Z,27.70
2022-12-03T04:47:46.382Z,31.05
2022-12-03T04:50:49.039Z,25.88
2022-12-03T04:53:51.661Z,36.70
2022-12-03T04:56:54.262Z,32.38
2022-12-03T04:59:58.269Z,28.08
2022-12-03T05:03:01.348Z,27.92
2022-12-03T05:06:03.952Z,25.48
2022-12-03T05:09:06.518Z,24.45
2022-12-03T05:12:09.245Z,24.80
2022-12-03T05:15:13.223Z,24.45
2022-12-03T05:18:15.755Z,25.92
2022-12-03T05:21:18.541Z,24.27
2022-12-03T05:24:21.102Z,23.02
2022-12-03T05:27:24.391Z,29.65
2022-12-03T05:30:28.538Z,27.83
2022-12-03T05:33:32.514Z,21.45
2022-12-03T05:36:35.008Z,21.95
2022-12-03T05:39:37.589Z,19.33
2022-12-03T05:42:56.661Z,23.67
2022-12-03T05:46:00.572Z,29.15
2022-12-03T05:49:05.785Z,24.85
2022-12-03T05:52:08.287Z,26.23
2022-12-03T05:55:11.811Z,25.40
2022-12-03T05:58:14.378Z,25.65
2022-12-03T06:01:18.254Z,27.88
2022-12-03T06:04:20.774Z,29.02
2022-12-03T06:07:23.451Z,21.33
2022-12-03T06:10:26.802Z,26.15
2022-12-03T06:13:29.372Z,21.30
2022-12-03T06:16:33.470Z,24.27
2022-12-03T06:19:36.298Z,27.23
2022-12-03T06:22:38.916Z,25.88
2022-12-03T06:25:41.450Z,21.17
2022-12-03T06:28:46.167Z,22.20
2022-12-03T06:31:50.119Z,26.40
2022-12-03T06:34:53.052Z,28.23
2022-12-03T06:37:55.855Z,24.83
2022-12-03T06:40:58.401Z,24.75
2022-12-03T06:44:01.066Z,23.50
2022-12-03T06:47:05.048Z,24.20
2022-12-03T06:50:08.842Z,21.85
2022-12-03T06:53:11.396Z,25.40
2022-12-03T06:56:13.934Z,28.08
2022-12-03T06:59:16.653Z,22.27
2022-12-03T07:02:21.594Z,20.15
2022-12-03T07:05:24.177Z,26.63
2022-12-03T07:08:27.263Z,22.27
2022-12-03T07:11:33.121Z,27.42
2022-12-03T07:14:35.725Z,23.45
2022-12-03T07:17:39.846Z,25.73
2022-12-03T07:20:42.470Z,31.02
2022-12-03T07:23:45.089Z,18.80
2022-12-03T07:26:47.716Z,21.98
2022-12-03T07:29:50.414Z,28.48
2022-12-03T07:32:54.603Z,24.17
2022-12-03T07:35:57.151Z,25.42
2022-12-03T07:39:00.715Z,24.23
2022-12-03T07:42:03.381Z,27.50
2022-12-03T07:45:06.421Z,21.88
2022-12-03T07:48:10.343Z,20.17
2022-12-03T07:51:15.482Z,21.75
2022-12-03T07:54:18.458Z,22.10
2022-12-03T07:57:22.042Z,26.15
2022-12-03T08:00:24.823Z,24.92
2022-12-03T08:03:28.717Z,21.45
2022-12-03T08:06:31.378Z,24.63
2022-12-03T08:09:34.022Z,22.33
2022-12-03T08:12:42.498Z,29.23
2022-12-03T08:15:45.492Z,27.73
2022-12-03T08:18:50.224Z,23.92
2022-12-03T08:21:57.985Z,22.38
2022-12-03T08:25:03.725Z,24.88
2022-12-03T08:28:11.901Z,23.95
2022-12-03T08:31:19.796Z,24.92
2022-12-03T08:34:24.628Z,26.35
2022-12-03T08:37:27.327Z,26.98
2022-12-03T08:40:35.501Z,29.35
2022-12-03T08:43:42.709Z,22.95
2022-12-03T08:46:45.659Z,25.38
2022-12-03T08:49:52.439Z,24.90
2022-12-03T08:52:58.364Z,31.63
2022-12-03T08:56:01.488Z,22.90
2022-12-03T08:59:16.531Z,27.80
2022-12-03T09:02:25.995Z,29.95
2022-12-03T09:05:32.260Z,24.92
2022-12-03T09:08:35.192Z,24.05
2022-12-03T09:11:38.048Z,22.38
2022-12-03T09:14:40.722Z,26.55
2022-12-03T09:17:43.377Z,28.00
2022-12-03T09:20:47.610Z,27.80
2022-12-03T09:23:50.430Z,28.08
2022-12-03T09:26:54.364Z,27.35
2022-12-03T09:29:57.284Z,21.58
2022-12-03T09:33:00.544Z,26.25
2022-12-03T09:36:04.899Z,31.85
2022-12-03T09:39:07.554Z,31.83
2022-12-03T09:42:10.444Z,22.48
2022-12-03T09:45:14.248Z,24.73
2022-12-03T09:48:17.337Z,27.30
2022-12-03T09:51:21.639Z,36.22
2022-12-03T09:54:25.321Z,22.05
2022-12-03T09:57:28.029Z,21.27
2022-12-03T10:00:31.270Z,25.52
2022-12-03T10:03:37.410Z,23.42
2022-12-03T10:06:45.715Z,28.88
2022-12-03T10:09:49.081Z,21.45
2022-12-03T10:12:52.293Z,21.83
2022-12-03T10:15:56.391Z,24.27
2022-12-03T10:19:00.485Z,19.90
2022-12-03T10:22:04.600Z,32.42
2022-12-03T10:25:10.082Z,22.65
2022-12-03T10:28:12.706Z,26.20
2022-12-03T10:31:16.271Z,21.00
2022-12-03T10:34:24.883Z,22.80
2022-12-03T10:37:28.949Z,17.60
2022-12-03T10:40:33.033Z,24.13
2022-12-03T10:43:35.600Z,25.13
2022-12-03T10:46:38.496Z,23.05
2022-12-03T10:49:41.457Z,26.92
2022-12-03T10:53:03.764Z,23.35
2022-12-03T10:56:07.488Z,29.08
2022-12-03T10:59:14.171Z,24.90
2022-12-03T11:02:19.734Z,25.88
2022-12-03T11:05:26.586Z,20.60
2022-12-03T11:08:32.392Z,25.77
2022-12-03T11:11:35.222Z,21.70
2022-12-03T11:15:06.194Z,25.45
2022-12-03T11:18:09.104Z,13.80
2022-12-03T11:21:12.596Z,22.40
2022-12-03T11:24:20.800Z,23.20
2022-12-03T11:27:23.610Z,26.73
2022-12-03T11:30:57.043Z,20.60
2022-12-03T11:34:32.412Z,20.45
2022-12-03T11:37:35.979Z,23.92
2022-12-03T11:40:40.234Z,20.30
2022-12-03T11:43:58.523Z,18.60
2022-12-03T11:47:08.917Z,25.95
2022-12-03T11:50:21.038Z,34.42
2022-12-03T11:53:24.757Z,29.70
2022-12-03T11:56:30.305Z,26.80
2022-12-03T11:59:33.001Z,55.13
2022-12-03T12:02:35.931Z,35.78
2022-12-03T12:05:38.509Z,19.27
2022-12-03T12:08:41.892Z,21.25
2022-12-03T12:11:45.958Z,57.55
2022-12-03T12:14:48.746Z,21.92
2022-12-03T12:17:51.287Z,18.20
2022-12-03T12:20:54.021Z,21.15
2022-12-03T12:23:56.590Z,16.88
2022-12-03T12:27:01.786Z,45.13
2022-12-03T12:30:06.949Z,32.97
2022-12-03T12:33:15.322Z,20.88
2022-12-03T12:36:18.213Z,18.75
2022-12-03T12:39:24.103Z,22.52
2022-12-03T12:42:37.986Z,18.67
2022-12-03T12:45:47.779Z,23.42
2022-12-03T12:48:56.511Z,19.42
2022-12-03T12:52:02.133Z,21.48
2022-12-03T12:55:07.923Z,21.40
2022-12-03T12:58:16.389Z,17.60
2022-12-03T13:01:21.395Z,21.02
2022-12-03T13:04:24.689Z,25.20
2022-12-03T13:07:27.436Z,22.85
2022-12-03T13:10:39.783Z,25.00
2022-12-03T13:13:44.675Z,33.42
2022-12-03T13:16:56.615Z,18.30
2022-12-03T13:20:07.618Z,21.92
2022-12-03T13:23:23.036Z,25.00
2022-12-03T13:26:40.129Z,23.13
2022-12-03T13:29:45.520Z,20.15
2022-12-03T13:32:48.647Z,21.55
2022-12-03T13:35:52.521Z,15.82
2022-12-03T13:39:11.414Z,26.27
2022-12-03T13:42:35.079Z,24.52
2022-12-03T13:45:41.015Z,32.25
2022-12-03T13:48:45.165Z,28.15
2022-12-03T13:51:48.136Z,19.35
2022-12-03T13:57:54.987Z,25.17
2022-12-03T14:00:59.135Z,22.73
2022-12-03T14:04:01.819Z,20.92
2022-12-03T14:07:04.554Z,22.98
2022-12-03T14:10:07.988Z,18.95
2022-12-03T14:13:11.055Z,21.10
2022-12-03T14:16:15.899Z,25.40
2022-12-03T14:19:18.562Z,20.70
2022-12-03T14:22:23.391Z,17.95
2022-12-03T14:25:26.042Z,19.08
2022-12-03T14:28:28.928Z,27.63
2022-12-03T14:31:32.951Z,23.92
2022-12-03T14:34:35.522Z,23.15
2022-12-03T14:37:47.278Z,30.55
2022-12-03T14:40:49.735Z,25.75
2022-12-03T14:43:52.205Z,37.05
2022-12-03T14:46:57.502Z,34.28
2022-12-03T14:50:00.279Z,27.65
2022-12-03T14:53:02.727Z,26.60
2022-12-03T14:56:05.293Z,22.42
2022-12-03T14:59:08.518Z,26.77
2022-12-03T15:02:13.100Z,21.60
2022-12-03T15:05:15.864Z,22.85
2022-12-03T15:08:18.516Z,22.67
2022-12-03T15:11:21.042Z,24.45
2022-12-03T15:14:23.526Z,22.50
2022-12-03T15:17:32.186Z,25.65
2022-12-03T15:20:35.506Z,27.77
2022-12-03T15:23:38.714Z,26.65
2022-12-03T15:26:46.528Z,35.13
2022-12-03T15:29:49.230Z,21.85
2022-12-03T15:32:52.991Z,24.58
2022-12-03T15:36:02.452Z,22.35
2022-12-03T15:39:05.029Z,27.95
2022-12-03T15:42:08.935Z,30.60
2022-12-03T15:45:15.310Z,35.58
2022-12-03T15:48:22.149Z,47.70
2022-12-03T15:51:24.623Z,33.03
2022-12-03T15:54:27.224Z,30.60
2022-12-03T15:57:32.763Z,32.25
2022-12-03T16:00:42.680Z,26.85
2022-12-03T16:04:00.033Z,29.38
2022-12-03T16:07:03.812Z,40.05
2022-12-03T16:10:07.040Z,28.85
2022-12-03T16:13:13.037Z,28.27
2022-12-03T16:16:15.599Z,22.40
2022-12-03T16:19:18.430Z,38.60
2022-12-03T16:22:22.317Z,28.65
2022-12-03T16:25:25.148Z,30.33
2022-12-03T16:28:27.702Z,36.75
2022-12-03T16:31:30.439Z,27.05
2022-12-03T16:34:33.134Z,36.53
2022-12-03T16:37:36.952Z,34.78
2022-12-03T16:40:39.502Z,26.88
2022-12-03T16:43:45.320Z,36.30
2022-12-03T16:46:48.986Z,29.33
2022-12-03T16:49:51.702Z,23.30
2022-12-03T16:52:55.863Z,26.67
2022-12-03T16:55:58.559Z,27.13
2022-12-03T16:59:01.014Z,29.55
2022-12-03T17:02:03.568Z,21.63
2022-12-03T17:05:06.479Z,29.88
2022-12-03T17:08:10.477Z,29.67
2022-12-03T17:11:14.744Z,27.48
2022-12-03T17:14:17.416Z,26.52
2022-12-03T17:17:20.149Z,27.92
2022-12-03T17:20:22.925Z,27.48
2022-12-03T17:23:26.996Z,31.35
2022-12-03T17:26:29.750Z,29.40
2022-12-03T17:29:32.372Z,34.03
2022-12-03T17:32:42.490Z,36.42
2022-12-03T17:35:46.394Z,40.55
2022-12-03T17:38:50.462Z,31.33
2022-12-03T17:41:53.081Z,45.90
2022-12-03T17:44:55.789Z,41.30
2022-12-03T17:48:00.089Z,30.92
2022-12-03T17:51:02.841Z,40.35
2022-12-03T17:54:07.149Z,71.50
2022-12-03T17:57:09.835Z,177.23
2022-12-03T18:00:13.421Z,136.43
2022-12-03T18:03:17.556Z,58.90
2022-12-03T18:06:20.185Z,44.95
2022-12-03T18:09:24.106Z,42.47
2022-12-03T18:12:26.814Z,38.75
2022-12-03T18:15:29.742Z,41.38
2022-12-03T18:18:33.035Z,32.13
2022-12-03T18:21:36.691Z,32.05
2022-12-03T18:24:41.024Z,37.20
2022-12-03T18:27:43.959Z,34.55
2022-12-03T18:30:52.219Z,35.92
2022-12-03T18:33:55.895Z,30.27
2022-12-03T18:36:58.755Z,38.55
2022-12-03T18:40:12.438Z,28.60
2022-12-03T18:43:16.925Z,26.42
2022-12-03T18:49:42.044Z,101.47
2022-12-03T18:52:45.111Z,44.08
2022-12-03T18:55:49.139Z,52.78
2022-12-03T18:58:54.493Z,31.50
2022-12-03T19:01:57.678Z,40.65
2022-12-03T19:05:00.546Z,38.45
2022-12-03T19:08:04.186Z,43.95
2022-12-03T19:11:08.418Z,33.60
2022-12-03T19:14:11.932Z,38.80
2022-12-03T19:17:14.742Z,32.60
2022-12-03T19:20:17.669Z,34.50
2022-12-03T19:23:20.438Z,34.97
2022-12-03T19:26:24.473Z,42.05
2022-12-03T19:29:27.141Z,39.35
2022-12-03T19:32:30.335Z,43.03
2022-12-03T19:35:33.503Z,40.85
2022-12-03T19:38:36.108Z,32.13
2022-12-03T19:41:41.719Z,34.38
2022-12-03T19:44:44.206Z,33.90
2022-12-03T19:47:46.699Z,29.05
2022-12-03T19:50:58.196Z,39.30
2022-12-03T19:54:12.107Z,34.50
2022-12-03T19:57:22.903Z,24.25
2022-12-03T20:00:26.029Z,33.08
2022-12-03T20:03:28.624Z,36.40
2022-12-03T20:06:31.735Z,36.80
2022-12-03T20:09:34.274Z,32.97
2022-12-03T20:12:38.147Z,30.52
2022-12-03T20:15:40.600Z,32.17
2022-12-03T20:18:44.388Z,37.13
2022-12-03T20:21:46.907Z,29.77
2022-12-03T20:24:49.433Z,42.63
2022-12-03T20:27:53.398Z,41.92
2022-12-03T20:30:59.084Z,43.97
2022-12-03T20:34:02.558Z,40.33
2022-12-03T20:37:05.289Z,35.78
2022-12-03T20:40:08.542Z,45.45
2022-12-03T20:43:12.459Z,38.38
2022-12-03T20:46:15.831Z,38.58
2022-12-03T20:49:18.642Z,35.00
2022-12-03T20:52:21.198Z,36.75
2022-12-03T20:55:23.765Z,59.38
2022-12-03T20:58:27.763Z,36.53
2022-12-03T21:01:30.347Z,47.28
2022-12-03T21:04:32.977Z,38.58
2022-12-03T21:07:35.581Z,43.13
2022-12-03T21:10:37.143Z,40.00
2022-12-03T21:13:43.392Z,38.03
2022-12-03T21:20:14.569Z,39.05
2022-12-03T21:23:20.856Z,36.63
2022-12-03T21:26:24.021Z,39.78
2022-12-03T21:29:27.884Z,50.60
2022-12-03T21:32:30.588Z,65.97
2022-12-03T21:35:33.592Z,40.95
2022-12-03T21:38:36.143Z,45.67
2022-12-03T21:41:38.678Z,36.97
2022-12-03T21:44:42.547Z,41.33
2022-12-03T21:47:47.319Z,37.35
2022-12-03T21:50:58.537Z,35.08
2022-12-03T21:54:01.036Z,36.17
2022-12-03T21:57:03.616Z,39.08
2022-12-03T22:00:09.269Z,37.58
2022-12-03T22:03:14.813Z,38.42
2022-12-03T22:06:17.903Z,38.35
2022-12-03T22:09:26.132Z,38.15
2022-12-03T22:12:29.213Z,35.63
2022-12-03T22:15:33.189Z,37.88
2022-12-03T22:18:36.111Z,44.72
2022-12-03T22:21:38.614Z,46.67
2022-12-03T22:24:41.127Z,33.67
2022-12-03T22:27:43.689Z,30.98
2022-12-03T22:30:47.888Z,29.38
2022-12-03T22:33:50.475Z,43.72
2022-12-03T22:36:53.133Z,38.83
2022-12-03T22:39:55.762Z,46.10
2022-12-03T22:42:58.461Z,39.25
2022-12-03T22:46:02.415Z,38.13
2022-12-03T22:49:07.360Z,35.95
2022-12-03T22:52:10.051Z,38.22
2022-12-03T22:55:12.598Z,40.65
2022-12-03T22:58:15.130Z,37.03
2022-12-03T23:01:26.081Z,38.00
2022-12-03T23:04:28.661Z,30.08
2022-12-03T23:07:31.386Z,30.98
2022-12-03T23:10:34.377Z,38.40
2022-12-03T23:13:36.857Z,31.98
2022-12-03T23:16:41.283Z,32.40
2022-12-03T23:19:44.157Z,27.65
2022-12-03T23:22:48.633Z,25.67
2022-12-03T23:25:56.934Z,35.53
2022-12-03T23:28:59.435Z,28.50
2022-12-03T23:32:03.426Z,29.42
2022-12-03T23:35:06.782Z,32.95
2022-12-03T23:38:09.347Z,33.38
2022-12-03T23:41:13.102Z,27.90
2022-12-03T23:44:15.636Z,42.42
2022-12-03T23:47:18.504Z,27.35
2022-12-03T23:50:21.042Z,34.08
2022-12-03T23:53:23.725Z,26.70
2022-12-03T23:56:29.008Z,26.85
2022-12-03T23:59:31.534Z,31.48
